Time;durP1;ratioP1;P1;durP2;ratioP2;P2;SDS_P1;SDS_P2;PMS_P1;PMS_P2;Temp;Humidity;BMP_temperature;BMP_pressure;BME280_temperature;BME280_humidity;BME280_pressure;Samples;Min_cycle;Max_cycle;Signal;HPM_P1;HPM_P2
2022/01/26 00:00:41;;;;;;;30.73;13.65;;;;;;;;;;4990736;28;20483;-84
2022/01/26 00:05:54;;;;;;;28.08;14.20;;;;;;;;;;4989607;28;20049;-83
2022/01/26 00:08:24;;;;;;;30.27;15.80;;;;;;;;;;4990576;28;20038;-83
2022/01/26 00:10:51;;;;;;;31.08;14.98;;;;;;;;;;4989586;28;20030;-84
2022/01/26 00:13:17;;;;;;;30.77;15.93;;;;;;;;;;4989887;28;20050;-83
2022/01/26 00:15:43;;;;;;;33.33;15.75;;;;;;;;;;4988947;28;20438;-84
2022/01/26 00:18:09;;;;;;;34.22;14.88;;;;;;;;;;4990005;28;20101;-84
2022/01/26 00:20:45;;;;;;;37.05;17.08;;;;;;;;;;4988080;28;20026;-84
2022/01/26 00:26:26;;;;;;;30.75;15.65;;;;;;;;;;4996166;28;20076;-84
2022/01/26 00:38:57;;;;;;;28.50;12.85;;;;;;;;;;4992276;28;20041;-84
2022/01/26 00:41:34;;;;;;;26.95;14.32;;;;;;;;;;4991583;28;20438;-83
2022/01/26 00:44:00;;;;;;;27.55;13.25;;;;;;;;;;4992597;28;20026;-83
2022/01/26 00:46:26;;;;;;;30.15;14.93;;;;;;;;;;4995378;28;20153;-84
2022/01/26 00:48:53;;;;;;;28.98;13.77;;;;;;;;;;4991051;28;20050;-84
2022/01/26 00:51:21;;;;;;;30.50;14.55;;;;;;;;;;4992881;28;20026;-84
2022/01/26 00:53:53;;;;;;;29.02;13.07;;;;;;;;;;4990602;28;20022;-82
2022/01/26 00:56:19;;;;;;;24.13;12.45;;;;;;;;;;4991746;28;20122;-83
2022/01/26 00:58:46;;;;;;;25.38;13.25;;;;;;;;;;4994454;28;20057;-84
2022/01/26 01:01:12;;;;;;;23.50;12.50;;;;;;;;;;4990494;28;20095;-85
2022/01/26 01:03:42;;;;;;;25.95;13.27;;;;;;;;;;4990900;28;20030;-84
2022/01/26 01:08:47;;;;;;;24.88;12.93;;;;;;;;;;4980147;28;20038;-84
2022/01/26 01:11:13;;;;;;;26.10;12.75;;;;;;;;;;4991037;28;20117;-84
2022/01/26 01:13:41;;;;;;;32.03;12.95;;;;;;;;;;5010006;28;20038;-84
2022/01/26 01:16:09;;;;;;;24.40;12.43;;;;;;;;;;4992701;28;20023;-84
2022/01/26 01:18:45;;;;;;;22.58;11.98;;;;;;;;;;4989651;28;20049;-84
2022/01/26 01:34:15;;;;;;;23.77;11.48;;;;;;;;;;4992196;28;20474;-85
2022/01/26 01:36:44;;;;;;;28.00;13.87;;;;;;;;;;4988901;28;20483;-84
2022/01/26 01:39:10;;;;;;;23.65;11.95;;;;;;;;;;4989477;28;20283;-84
2022/01/26 01:41:37;;;;;;;23.50;11.93;;;;;;;;;;4989768;28;20451;-84
2022/01/26 01:44:04;;;;;;;23.85;12.00;;;;;;;;;;4993559;28;21117;-84
2022/01/26 01:46:30;;;;;;;26.35;11.90;;;;;;;;;;4992458;28;20391;-83
2022/01/26 01:48:56;;;;;;;24.52;12.48;;;;;;;;;;4985047;28;20062;-84
2022/01/26 01:51:29;;;;;;;23.13;11.65;;;;;;;;;;4991938;28;20471;-84
2022/01/26 01:53:55;;;;;;;27.75;11.85;;;;;;;;;;4990325;28;20034;-84
2022/01/26 01:56:25;;;;;;;25.00;12.57;;;;;;;;;;4991843;28;20033;-83
2022/01/26 01:58:53;;;;;;;23.05;12.05;;;;;;;;;;4991121;28;20026;-84
2022/01/26 02:01:19;;;;;;;23.00;11.90;;;;;;;;;;4989174;28;20403;-83
2022/01/26 02:03:45;;;;;;;27.40;11.63;;;;;;;;;;4990599;28;20026;-84
2022/01/26 02:06:11;;;;;;;23.73;12.73;;;;;;;;;;4989918;28;20503;-84
2022/01/26 02:08:37;;;;;;;32.05;14.48;;;;;;;;;;4989107;28;20065;-84
2022/01/26 02:11:06;;;;;;;24.30;12.85;;;;;;;;;;4989105;28;20117;-84
2022/01/26 02:13:40;;;;;;;26.70;12.68;;;;;;;;;;4992715;28;20038;-84
2022/01/26 02:19:19;;;;;;;24.42;12.18;;;;;;;;;;4993436;28;20039;-84
2022/01/26 02:54:46;;;;;;;19.90;10.90;;;;;;;;;;4985057;28;20026;-84
2022/01/26 02:57:33;;;;;;;22.90;9.98;;;;;;;;;;4987975;28;20113;-83
2022/01/26 03:00:15;;;;;;;20.65;10.30;;;;;;;;;;4991273;28;20118;-84
2022/01/26 03:02:52;;;;;;;19.65;10.65;;;;;;;;;;4983387;28;20030;-83
2022/01/26 03:05:20;;;;;;;22.58;10.93;;;;;;;;;;4976381;28;20030;-84
2022/01/26 03:07:55;;;;;;;20.30;10.20;;;;;;;;;;4991065;28;20030;-84
2022/01/26 03:10:38;;;;;;;15.93;8.55;;;;;;;;;;4988738;28;20104;-83
2022/01/26 03:13:13;;;;;;;22.73;10.55;;;;;;;;;;4985662;28;20085;-84
2022/01/26 03:15:44;;;;;;;22.55;9.75;;;;;;;;;;4989536;28;20471;-83
2022/01/26 03:20:58;;;;;;;21.75;10.02;;;;;;;;;;4990116;28;20030;-85
2022/01/26 03:34:02;;;;;;;20.00;9.73;;;;;;;;;;4991098;28;20030;-83
2022/01/26 03:36:31;;;;;;;20.38;10.18;;;;;;;;;;4988285;28;20065;-84
2022/01/26 03:39:07;;;;;;;22.67;10.80;;;;;;;;;;4983011;28;20034;-84
2022/01/26 03:41:40;;;;;;;24.05;10.25;;;;;;;;;;4988665;28;20109;-83
2022/01/26 03:44:07;;;;;;;20.98;10.05;;;;;;;;;;4991415;28;20529;-83
2022/01/26 03:46:33;;;;;;;19.08;9.73;;;;;;;;;;4989694;28;20069;-83
2022/01/26 03:48:59;;;;;;;19.13;8.48;;;;;;;;;;4989760;28;20411;-84
2022/01/26 03:51:26;;;;;;;16.75;8.15;;;;;;;;;;4989670;28;20037;-84
2022/01/26 03:53:51;;;;;;;22.85;9.38;;;;;;;;;;4989430;28;20480;-84
2022/01/26 03:56:18;;;;;;;17.67;8.10;;;;;;;;;;4989479;28;20033;-84
2022/01/26 03:58:43;;;;;;;15.57;8.77;;;;;;;;;;5009124;28;20375;-84
2022/01/26 04:01:10;;;;;;;17.70;9.10;;;;;;;;;;5004030;28;20487;-83
2022/01/26 04:03:36;;;;;;;17.25;8.63;;;;;;;;;;4987645;28;20507;-84
2022/01/26 04:06:02;;;;;;;17.92;8.80;;;;;;;;;;4992092;28;20026;-83
2022/01/26 04:08:30;;;;;;;17.90;9.48;;;;;;;;;;4992572;28;20053;-83
2022/01/26 04:13:40;;;;;;;18.90;9.30;;;;;;;;;;4995772;28;20454;-84
2022/01/26 04:16:07;;;;;;;21.05;9.43;;;;;;;;;;4992299;28;20033;-84
2022/01/26 04:18:37;;;;;;;18.45;8.48;;;;;;;;;;4992552;28;20068;-84
2022/01/26 04:21:14;;;;;;;21.00;9.93;;;;;;;;;;4988791;28;20027;-83
2022/01/26 04:24:03;;;;;;;16.60;9.73;;;;;;;;;;4994591;28;20037;-84
2022/01/26 04:26:35;;;;;;;19.48;9.82;;;;;;;;;;4976800;28;20585;-84
2022/01/26 04:29:06;;;;;;;19.67;9.15;;;;;;;;;;4976671;28;20098;-83
2022/01/26 04:31:33;;;;;;;17.17;9.35;;;;;;;;;;5021915;28;20031;-84
2022/01/26 04:33:59;;;;;;;13.88;8.07;;;;;;;;;;4986156;28;20033;-84
2022/01/26 04:36:31;;;;;;;16.77;8.90;;;;;;;;;;4992057;28;20117;-83
2022/01/26 04:39:01;;;;;;;15.95;9.07;;;;;;;;;;4992220;28;20495;-84
2022/01/26 04:44:04;;;;;;;17.52;8.57;;;;;;;;;;4993708;28;20034;-83
2022/01/26 04:46:30;;;;;;;17.52;8.13;;;;;;;;;;4994997;28;20116;-83
2022/01/26 04:48:55;;;;;;;20.30;7.93;;;;;;;;;;4991346;28;20093;-84
2022/01/26 04:51:22;;;;;;;15.90;7.95;;;;;;;;;;4991936;28;20037;-84
2022/01/26 04:53:47;;;;;;;20.45;10.30;;;;;;;;;;4989694;28;20033;-83
2022/01/26 04:56:14;;;;;;;19.65;9.25;;;;;;;;;;4991021;28;20383;-83
2022/01/26 04:58:41;;;;;;;16.33;8.50;;;;;;;;;;5026623;28;20033;-84
2022/01/26 05:01:07;;;;;;;18.02;8.73;;;;;;;;;;4993534;28;20146;-84
2022/01/26 05:03:33;;;;;;;14.43;7.63;;;;;;;;;;4989705;28;20402;-83
2022/01/26 05:05:59;;;;;;;17.95;8.18;;;;;;;;;;4991533;28;20054;-83
2022/01/26 05:08:25;;;;;;;13.98;7.60;;;;;;;;;;4992946;28;20065;-83
2022/01/26 05:10:51;;;;;;;15.57;7.38;;;;;;;;;;4991745;28;20045;-83
2022/01/26 05:13:17;;;;;;;14.85;7.72;;;;;;;;;;4992097;28;20105;-83
2022/01/26 05:15:43;;;;;;;18.45;8.30;;;;;;;;;;4986804;28;20034;-84
2022/01/26 05:18:10;;;;;;;13.30;7.32;;;;;;;;;;4993075;28;20037;-83
2022/01/26 05:20:36;;;;;;;15.27;7.78;;;;;;;;;;4988382;28;20093;-84
2022/01/26 05:23:03;;;;;;;14.00;6.57;;;;;;;;;;5021414;28;20030;-84
2022/01/26 05:25:29;;;;;;;13.23;6.35;;;;;;;;;;4988416;28;20034;-83
2022/01/26 05:27:55;;;;;;;9.75;5.15;;;;;;;;;;4991956;28;20037;-83
2022/01/26 05:30:21;;;;;;;17.08;7.70;;;;;;;;;;4989353;28;20046;-84
2022/01/26 05:32:47;;;;;;;14.15;7.13;;;;;;;;;;4986699;28;20407;-83
2022/01/26 05:35:13;;;;;;;12.30;6.03;;;;;;;;;;4989622;28;20498;-83
2022/01/26 05:37:39;;;;;;;15.13;6.65;;;;;;;;;;5012907;28;20023;-82
2022/01/26 05:40:06;;;;;;;15.52;6.05;;;;;;;;;;4990633;28;20438;-83
2022/01/26 05:42:35;;;;;;;13.52;7.00;;;;;;;;;;4989689;28;20050;-84
2022/01/26 05:45:04;;;;;;;12.82;6.35;;;;;;;;;;4984675;28;20038;-83
2022/01/26 05:47:32;;;;;;;11.40;6.20;;;;;;;;;;4992456;28;20547;-83
2022/01/26 05:49:59;;;;;;;12.90;6.70;;;;;;;;;;4992478;28;20046;-84
2022/01/26 05:52:25;;;;;;;15.00;7.85;;;;;;;;;;4993435;28;20030;-83
2022/01/26 05:54:51;;;;;;;14.05;7.13;;;;;;;;;;4988712;28;20427;-84
2022/01/26 05:57:17;;;;;;;15.15;7.43;;;;;;;;;;4991331;28;20043;-83
2022/01/26 05:59:43;;;;;;;15.98;6.97;;;;;;;;;;4990630;28;20038;-83
2022/01/26 06:02:09;;;;;;;15.93;7.32;;;;;;;;;;4992060;28;20028;-83
2022/01/26 06:04:35;;;;;;;15.23;7.65;;;;;;;;;;5012415;28;20026;-83
2022/01/26 06:07:01;;;;;;;14.40;6.75;;;;;;;;;;4989902;28;20034;-83
2022/01/26 06:09:27;;;;;;;13.77;7.07;;;;;;;;;;4989522;28;20030;-83
2022/01/26 06:11:53;;;;;;;15.60;6.88;;;;;;;;;;4987946;28;20088;-83
2022/01/26 06:14:19;;;;;;;18.60;9.32;;;;;;;;;;4989689;28;20035;-84
2022/01/26 06:16:45;;;;;;;17.15;8.80;;;;;;;;;;4991152;28;20023;-84
2022/01/26 06:19:11;;;;;;;17.95;8.50;;;;;;;;;;4989892;28;20038;-84
2022/01/26 06:21:37;;;;;;;18.83;9.27;;;;;;;;;;4987715;28;20033;-83
2022/01/26 06:24:03;;;;;;;16.75;7.55;;;;;;;;;;4987996;28;20085;-84
2022/01/26 06:26:29;;;;;;;12.77;6.70;;;;;;;;;;4989088;28;20037;-83
2022/01/26 06:28:55;;;;;;;17.77;8.48;;;;;;;;;;4989953;28;20038;-83
2022/01/26 06:31:26;;;;;;;15.15;6.82;;;;;;;;;;5009999;28;20026;-86
2022/01/26 06:33:52;;;;;;;11.80;6.18;;;;;;;;;;4988693;28;20034;-84
2022/01/26 06:36:18;;;;;;;17.60;8.45;;;;;;;;;;4987150;28;20023;-83
2022/01/26 06:38:46;;;;;;;16.70;8.48;;;;;;;;;;4987573;28;20517;-84
2022/01/26 06:41:12;;;;;;;15.52;7.80;;;;;;;;;;4988277;28;20068;-83
2022/01/26 06:43:48;;;;;;;12.75;6.20;;;;;;;;;;5011823;28;20026;-84
2022/01/26 06:46:21;;;;;;;13.63;6.43;;;;;;;;;;4988513;28;20495;-84
2022/01/26 06:49:33;;;;;;;21.42;9.48;;;;;;;;;;4990017;28;20052;-84
2022/01/26 06:51:35;;;;;;;19.05;9.45;;;;;;;;;;4983990;28;20534;-84
2022/01/26 06:54:01;;;;;;;17.00;9.60;;;;;;;;;;4989138;28;20019;-84
2022/01/26 06:56:26;;;;;;;16.67;8.60;;;;;;;;;;4990511;28;20022;-84
2022/01/26 06:58:52;;;;;;;16.02;7.13;;;;;;;;;;4989885;28;20022;-84
2022/01/26 07:01:18;;;;;;;14.55;7.30;;;;;;;;;;4990146;28;20027;-83
2022/01/26 07:03:46;;;;;;;17.88;8.25;;;;;;;;;;4987481;28;20029;-84
2022/01/26 07:06:12;;;;;;;13.48;6.55;;;;;;;;;;4988796;28;20117;-84
2022/01/26 07:08:38;;;;;;;12.77;7.07;;;;;;;;;;4987394;28;20121;-83
2022/01/26 07:11:04;;;;;;;13.23;6.43;;;;;;;;;;4988772;28;20145;-83
2022/01/26 07:13:30;;;;;;;14.63;6.82;;;;;;;;;;4990504;28;20481;-83
2022/01/26 07:21:28;;;;;;;13.82;6.82;;;;;;;;;;4990041;28;20096;-83
2022/01/26 07:23:58;;;;;;;11.05;7.10;;;;;;;;;;4988382;28;20077;-83
2022/01/26 07:26:27;;;;;;;12.65;7.30;;;;;;;;;;4987076;28;20053;-83
2022/01/26 07:28:53;;;;;;;13.25;7.28;;;;;;;;;;4990689;28;20030;-82
2022/01/26 07:31:19;;;;;;;13.95;7.65;;;;;;;;;;4989200;28;20030;-83
2022/01/26 07:33:45;;;;;;;15.73;7.93;;;;;;;;;;4990249;28;20030;-83
2022/01/26 07:36:11;;;;;;;14.75;8.00;;;;;;;;;;4990994;28;20022;-83
2022/01/26 07:38:37;;;;;;;15.55;8.40;;;;;;;;;;4992412;28;20033;-83
2022/01/26 07:41:04;;;;;;;14.77;8.13;;;;;;;;;;4993861;28;20060;-83
2022/01/26 07:43:30;;;;;;;13.85;6.57;;;;;;;;;;4992977;28;20045;-83
2022/01/26 07:45:56;;;;;;;11.27;6.40;;;;;;;;;;4991879;28;20026;-83
2022/01/26 07:48:23;;;;;;;13.07;6.15;;;;;;;;;;4991557;28;20471;-83
2022/01/26 07:50:51;;;;;;;12.32;6.55;;;;;;;;;;4992007;28;20077;-84
2022/01/26 07:53:17;;;;;;;11.57;5.65;;;;;;;;;;4991787;28;20029;-84
2022/01/26 07:55:43;;;;;;;10.63;6.22;;;;;;;;;;4993009;28;20470;-83
2022/01/26 07:58:10;;;;;;;8.63;5.45;;;;;;;;;;4990691;28;20031;-83
2022/01/26 08:00:37;;;;;;;13.32;5.75;;;;;;;;;;4990829;28;20030;-83
2022/01/26 08:03:02;;;;;;;12.85;5.05;;;;;;;;;;4991290;28;20034;-83
2022/01/26 08:05:29;;;;;;;12.38;6.72;;;;;;;;;;4989582;28;20110;-83
2022/01/26 08:07:55;;;;;;;12.07;6.35;;;;;;;;;;4994176;28;20049;-83
2022/01/26 08:10:21;;;;;;;12.75;6.60;;;;;;;;;;5012114;28;20049;-84
2022/01/26 08:12:49;;;;;;;11.57;7.03;;;;;;;;;;4992847;28;20046;-83
2022/01/26 08:15:15;;;;;;;13.23;7.07;;;;;;;;;;4990362;28;20038;-84
2022/01/26 08:17:41;;;;;;;14.73;7.07;;;;;;;;;;4991960;28;20105;-83
2022/01/26 08:20:08;;;;;;;14.00;7.93;;;;;;;;;;4992123;28;20141;-83
2022/01/26 08:22:35;;;;;;;12.80;7.80;;;;;;;;;;4993983;28;20072;-83
2022/01/26 08:25:01;;;;;;;16.17;8.35;;;;;;;;;;4991170;28;20422;-83
2022/01/26 08:27:32;;;;;;;15.23;8.85;;;;;;;;;;4993185;28;20114;-83
2022/01/26 08:30:05;;;;;;;14.90;9.23;;;;;;;;;;4991635;28;20390;-84
2022/01/26 08:32:31;;;;;;;14.77;9.48;;;;;;;;;;4990926;28;20426;-83
2022/01/26 08:34:57;;;;;;;14.52;8.30;;;;;;;;;;4992783;28;20034;-83
2022/01/26 08:37:23;;;;;;;16.83;8.68;;;;;;;;;;4992190;28;20022;-84
2022/01/26 08:39:49;;;;;;;13.90;8.32;;;;;;;;;;4989574;28;20038;-84
2022/01/26 08:42:15;;;;;;;11.35;7.07;;;;;;;;;;4990106;28;20023;-84
2022/01/26 08:44:41;;;;;;;12.18;7.47;;;;;;;;;;4988964;28;20471;-84
2022/01/26 08:47:07;;;;;;;13.32;8.30;;;;;;;;;;4991967;28;20038;-84
2022/01/26 08:49:33;;;;;;;13.15;8.45;;;;;;;;;;4993617;28;20026;-84
2022/01/26 08:52:00;;;;;;;11.25;7.40;;;;;;;;;;4985551;28;20368;-83
2022/01/26 08:54:26;;;;;;;12.30;7.68;;;;;;;;;;4989870;28;20105;-84
2022/01/26 08:56:53;;;;;;;9.52;6.18;;;;;;;;;;4989071;28;20018;-83
2022/01/26 08:59:21;;;;;;;13.02;7.45;;;;;;;;;;4989233;28;20062;-85
2022/01/26 09:01:47;;;;;;;13.10;7.63;;;;;;;;;;4994272;28;20034;-82
2022/01/26 09:04:13;;;;;;;11.77;7.15;;;;;;;;;;4991669;28;20391;-84
2022/01/26 09:06:50;;;;;;;11.70;7.07;;;;;;;;;;4991386;28;20072;-83
2022/01/26 09:09:21;;;;;;;13.27;6.95;;;;;;;;;;4989491;28;20052;-86
2022/01/26 09:11:48;;;;;;;13.50;7.78;;;;;;;;;;4989107;28;20089;-83
2022/01/26 09:14:19;;;;;;;13.13;6.80;;;;;;;;;;4974347;28;20026;-84
2022/01/26 09:16:46;;;;;;;12.13;6.57;;;;;;;;;;4993328;28;20033;-83
2022/01/26 09:19:28;;;;;;;11.93;6.70;;;;;;;;;;5005525;28;20041;-84
2022/01/26 09:21:55;;;;;;;11.82;5.97;;;;;;;;;;4990515;28;20031;-84
2022/01/26 09:24:22;;;;;;;10.85;6.57;;;;;;;;;;4988742;28;20057;-83
2022/01/26 09:26:48;;;;;;;10.75;6.18;;;;;;;;;;4989954;28;20030;-83
2022/01/26 09:29:14;;;;;;;8.57;5.03;;;;;;;;;;4989666;28;20034;-84
2022/01/26 09:31:40;;;;;;;9.60;5.60;;;;;;;;;;4993379;28;20475;-83
2022/01/26 09:34:06;;;;;;;12.30;6.18;;;;;;;;;;4990440;28;20465;-83
2022/01/26 09:36:32;;;;;;;10.38;5.82;;;;;;;;;;4988934;28;20129;-83
2022/01/26 09:38:58;;;;;;;8.82;6.05;;;;;;;;;;4990288;28;20038;-84
2022/01/26 09:41:24;;;;;;;10.75;5.70;;;;;;;;;;4988937;28;20031;-83
2022/01/26 09:43:50;;;;;;;8.45;4.63;;;;;;;;;;4992213;28;20101;-83
2022/01/26 09:46:16;;;;;;;9.40;5.00;;;;;;;;;;5010415;28;20026;-83
2022/01/26 09:48:43;;;;;;;8.55;4.75;;;;;;;;;;4988690;28;20085;-83
2022/01/26 09:51:13;;;;;;;10.10;5.18;;;;;;;;;;4990084;28;20471;-83
2022/01/26 09:53:39;;;;;;;10.23;5.65;;;;;;;;;;4988717;28;20490;-83
2022/01/26 09:56:05;;;;;;;9.55;5.13;;;;;;;;;;4989828;28;20046;-84
2022/01/26 09:58:32;;;;;;;9.15;5.10;;;;;;;;;;5022266;28;20014;-85
2022/01/26 10:01:00;;;;;;;11.77;5.60;;;;;;;;;;4991401;28;20117;-86
2022/01/26 10:03:35;;;;;;;9.70;5.00;;;;;;;;;;4992331;28;20032;-84
2022/01/26 10:06:03;;;;;;;8.88;5.18;;;;;;;;;;4990472;28;20093;-84
2022/01/26 10:09:24;;;;;;;9.93;5.35;;;;;;;;;;4988174;28;20110;-84
2022/01/26 10:19:25;;;;;;;11.45;5.45;;;;;;;;;;4990516;28;20027;-86
2022/01/26 10:21:52;;;;;;;10.98;5.80;;;;;;;;;;4990370;28;20034;-85
2022/01/26 10:24:20;;;;;;;11.85;5.53;;;;;;;;;;4988832;28;20467;-86
2022/01/26 10:26:50;;;;;;;11.45;5.38;;;;;;;;;;4988639;28;20097;-86
2022/01/26 10:29:17;;;;;;;10.20;5.35;;;;;;;;;;4990705;28;20502;-86
2022/01/26 10:31:43;;;;;;;11.50;5.60;;;;;;;;;;4990778;28;20026;-86
2022/01/26 10:34:14;;;;;;;9.98;5.07;;;;;;;;;;4986919;28;20031;-86
2022/01/26 10:36:42;;;;;;;11.32;5.72;;;;;;;;;;4988266;28;20117;-86
2022/01/26 10:39:15;;;;;;;11.45;6.05;;;;;;;;;;4988672;28;20042;-87
2022/01/26 10:41:42;;;;;;;11.77;5.72;;;;;;;;;;4989669;28;20030;-85
2022/01/26 10:44:08;;;;;;;10.70;6.10;;;;;;;;;;4989083;28;20113;-86
2022/01/26 10:46:38;;;;;;;10.23;5.53;;;;;;;;;;5010930;28;20647;-86
2022/01/26 10:49:19;;;;;;;11.50;6.13;;;;;;;;;;4988722;28;20035;-84
2022/01/26 10:54:23;;;;;;;13.30;7.07;;;;;;;;;;4991335;28;20062;-86
2022/01/26 10:56:50;;;;;;;11.93;6.32;;;;;;;;;;4990665;28;20018;-86
2022/01/26 10:59:16;;;;;;;11.05;5.60;;;;;;;;;;4986519;28;20092;-86
2022/01/26 11:01:42;;;;;;;11.55;5.88;;;;;;;;;;4989195;28;20030;-86
2022/01/26 11:04:09;;;;;;;9.60;5.45;;;;;;;;;;4984861;28;20062;-86
2022/01/26 11:06:36;;;;;;;10.75;5.45;;;;;;;;;;4984120;28;20083;-86
2022/01/26 11:09:08;;;;;;;11.38;5.88;;;;;;;;;;4986998;28;20034;-85
2022/01/26 11:11:35;;;;;;;13.95;6.43;;;;;;;;;;4986239;28;20035;-85
2022/01/26 11:14:01;;;;;;;10.18;5.43;;;;;;;;;;4989837;28;20027;-85
2022/01/26 11:16:28;;;;;;;11.70;6.15;;;;;;;;;;4990228;28;20034;-86
2022/01/26 11:18:58;;;;;;;11.98;6.20;;;;;;;;;;4986417;28;20025;-86
2022/01/26 11:21:25;;;;;;;13.55;6.25;;;;;;;;;;4983889;28;20037;-84
2022/01/26 11:23:52;;;;;;;9.93;6.00;;;;;;;;;;4981391;28;20705;-85
2022/01/26 11:26:25;;;;;;;11.18;6.25;;;;;;;;;;4983613;28;20026;-84
2022/01/26 11:28:51;;;;;;;11.30;6.68;;;;;;;;;;4986349;28;20348;-84
2022/01/26 11:31:18;;;;;;;11.63;6.47;;;;;;;;;;4989030;28;20030;-85
2022/01/26 11:33:48;;;;;;;9.50;5.25;;;;;;;;;;4985867;28;20030;-83
2022/01/26 11:36:17;;;;;;;12.43;6.18;;;;;;;;;;4988985;28;20105;-84
2022/01/26 11:46:57;;;;;;;9.75;5.20;;;;;;;;;;4976442;28;20077;-84
2022/01/26 11:49:25;;;;;;;8.68;5.10;;;;;;;;;;4989236;28;20122;-85
2022/01/26 11:51:52;;;;;;;10.30;5.40;;;;;;;;;;4988250;28;20026;-85
2022/01/26 11:54:26;;;;;;;9.27;5.05;;;;;;;;;;4985103;28;20027;-85
2022/01/26 11:56:55;;;;;;;11.23;5.88;;;;;;;;;;4986137;28;20176;-85
2022/01/26 11:59:22;;;;;;;9.68;5.00;;;;;;;;;;4989512;28;20026;-85
2022/01/26 12:01:56;;;;;;;9.35;5.10;;;;;;;;;;4989992;28;20049;-85
2022/01/26 12:04:24;;;;;;;7.80;3.88;;;;;;;;;;5010791;28;20502;-85
2022/01/26 12:06:58;;;;;;;9.15;4.25;;;;;;;;;;4986439;28;20033;-84
2022/01/26 12:09:24;;;;;;;6.97;3.75;;;;;;;;;;4990119;28;20124;-84
2022/01/26 12:11:55;;;;;;;8.18;4.05;;;;;;;;;;4985024;28;20056;-85
2022/01/26 12:14:22;;;;;;;6.22;3.30;;;;;;;;;;4986388;28;20023;-84
2022/01/26 12:16:50;;;;;;;8.32;4.28;;;;;;;;;;4990875;28;20023;-85
2022/01/26 12:35:49;;;;;;;11.68;5.00;;;;;;;;;;4976891;28;20121;-85
2022/01/26 12:39:11;;;;;;;9.50;5.25;;;;;;;;;;4972874;28;20032;-83
2022/01/26 12:43:53;;;;;;;11.75;6.25;;;;;;;;;;4989791;28;20066;-84
2022/01/26 12:46:23;;;;;;;12.18;6.13;;;;;;;;;;4991394;28;20076;-84
2022/01/26 12:48:53;;;;;;;12.98;6.97;;;;;;;;;;4990489;28;20038;-87
2022/01/26 12:51:20;;;;;;;14.32;8.18;;;;;;;;;;4989990;28;20030;-86
2022/01/26 12:53:51;;;;;;;13.27;7.40;;;;;;;;;;4988017;28;20099;-83
2022/01/26 12:56:17;;;;;;;15.68;9.10;;;;;;;;;;4973025;28;20471;-88
2022/01/26 12:58:43;;;;;;;14.32;8.48;;;;;;;;;;4998577;28;20561;-87
2022/01/26 13:01:10;;;;;;;16.33;7.65;;;;;;;;;;4991297;28;20066;-85
2022/01/26 13:03:38;;;;;;;12.45;7.10;;;;;;;;;;4986027;28;20031;-87
2022/01/26 13:06:14;;;;;;;14.63;7.07;;;;;;;;;;4977734;28;20046;-85
2022/01/26 13:08:43;;;;;;;12.57;7.13;;;;;;;;;;4983332;28;20037;-88
2022/01/26 13:11:09;;;;;;;12.55;6.68;;;;;;;;;;4982346;28;20038;-84
2022/01/26 13:13:35;;;;;;;16.80;7.32;;;;;;;;;;4988239;28;20030;-85
2022/01/26 13:16:13;;;;;;;14.30;7.65;;;;;;;;;;4988017;28;20027;-84
2022/01/26 13:22:04;;;;;;;14.35;7.80;;;;;;;;;;4987864;28;20069;-84
2022/01/26 13:24:57;;;;;;;14.82;7.90;;;;;;;;;;4983849;28;20035;-85
2022/01/26 13:37:40;;;;;;;14.25;8.15;;;;;;;;;;4990349;28;20030;-84
2022/01/26 13:52:47;;;;;;;13.70;7.50;;;;;;;;;;4993252;28;20054;-84
2022/01/26 13:58:20;;;;;;;15.30;7.93;;;;;;;;;;4991657;28;20063;-83
2022/01/26 14:00:55;;;;;;;;;;;;;;;;;;4987899;28;20612;-84
2022/01/26 14:03:24;;;;;;;13.93;6.22;;;;;;;;;;4988862;28;19909;-84
2022/01/26 14:05:50;;;;;;;16.55;7.80;;;;;;;;;;4989164;28;20022;-84
2022/01/26 14:08:16;;;;;;;13.68;7.22;;;;;;;;;;4991361;28;20030;-84
2022/01/26 14:10:46;;;;;;;12.77;6.60;;;;;;;;;;5020795;28;20035;-84
2022/01/26 14:13:12;;;;;;;14.25;7.07;;;;;;;;;;4991169;28;20506;-83
2022/01/26 14:15:46;;;;;;;13.02;7.35;;;;;;;;;;4987410;28;20030;-84
2022/01/26 14:18:40;;;;;;;12.45;6.90;;;;;;;;;;4990667;28;20525;-84
2022/01/26 14:21:24;;;;;;;13.60;7.03;;;;;;;;;;4989347;28;20052;-83
2022/01/26 14:24:23;;;;;;;9.80;5.32;;;;;;;;;;4990029;28;20438;-83
2022/01/26 14:26:50;;;;;;;13.18;6.32;;;;;;;;;;4989234;28;20058;-84
2022/01/26 14:29:42;;;;;;;10.32;5.55;;;;;;;;;;4974524;28;20109;-83
2022/01/26 14:35:24;;;;;;;10.32;5.85;;;;;;;;;;4976377;28;20037;-83
2022/01/26 15:42:20;;;;;;;19.60;7.55;;;;;;;;;;4987023;28;20057;-83
2022/01/26 15:50:07;;;;;;;18.92;10.15;;;;;;;;;;4989666;28;20557;-84
2022/01/26 16:06:06;;;;;;;15.40;6.93;;;;;;;;;;4990984;28;20061;-84
2022/01/26 17:24:25;;;;;;;17.17;10.25;;;;;;;;;;4991393;28;20022;-85
2022/01/26 17:43:16;;;;;;;14.15;8.20;;;;;;;;;;4991943;28;20022;-85
2022/01/26 18:15:53;;;;;;;20.60;11.32;;;;;;;;;;4991586;28;20030;-83
2022/01/26 18:50:03;;;;;;;26.90;14.85;;;;;;;;;;4993132;28;20117;-87
2022/01/26 18:52:30;;;;;;;32.72;17.65;;;;;;;;;;4993275;28;20035;-87
2022/01/26 18:54:56;;;;;;;33.45;18.88;;;;;;;;;;4991558;28;20113;-87
2022/01/26 18:57:22;;;;;;;34.85;21.15;;;;;;;;;;4993107;28;20061;-86
2022/01/26 18:59:48;;;;;;;34.97;19.98;;;;;;;;;;4991136;28;20029;-86
2022/01/26 19:02:14;;;;;;;24.05;11.40;;;;;;;;;;4991521;28;20057;-86
2022/01/26 19:04:44;;;;;;;23.92;12.00;;;;;;;;;;4992026;28;20034;-86
2022/01/26 19:07:10;;;;;;;25.38;12.73;;;;;;;;;;4991002;28;20050;-86
2022/01/26 19:09:41;;;;;;;25.13;14.65;;;;;;;;;;5010653;28;20057;-86
2022/01/26 19:12:10;;;;;;;26.23;15.07;;;;;;;;;;4989601;28;20529;-85
2022/01/26 19:14:39;;;;;;;19.10;10.68;;;;;;;;;;4991393;28;20026;-85
2022/01/26 19:17:12;;;;;;;22.70;12.27;;;;;;;;;;4991116;28;20391;-86
2022/01/26 19:19:53;;;;;;;22.95;11.82;;;;;;;;;;4979468;28;20019;-86
2022/01/26 19:25:19;;;;;;;19.20;8.13;;;;;;;;;;4990414;28;20124;-86
2022/01/26 19:51:48;;;;;;;20.90;11.05;;;;;;;;;;4988874;28;20097;-86
2022/01/26 19:54:14;;;;;;;23.05;15.05;;;;;;;;;;4990452;28;20034;-86
2022/01/26 19:56:40;;;;;;;37.15;20.83;;;;;;;;;;4991768;28;20034;-84
2022/01/26 19:59:06;;;;;;;21.95;14.35;;;;;;;;;;4993783;28;20109;-85
2022/01/26 20:01:32;;;;;;;19.67;11.90;;;;;;;;;;4990841;28;20026;-84
2022/01/26 20:03:58;;;;;;;22.20;12.40;;;;;;;;;;4990008;28;20033;-85
2022/01/26 20:06:24;;;;;;;25.67;14.80;;;;;;;;;;5013504;28;20491;-85
2022/01/26 20:08:57;;;;;;;26.15;15.52;;;;;;;;;;4992091;28;20081;-85
2022/01/26 20:11:54;;;;;;;29.23;15.50;;;;;;;;;;5010429;28;20051;-85
2022/01/26 20:14:10;;;;;;;22.33;12.25;;;;;;;;;;4996163;28;20030;-86
2022/01/26 20:16:36;;;;;;;19.92;12.23;;;;;;;;;;4995671;28;20038;-86
2022/01/26 20:19:03;;;;;;;17.27;9.32;;;;;;;;;;4994512;28;20035;-85
2022/01/26 20:21:29;;;;;;;16.45;9.48;;;;;;;;;;4982055;28;20463;-86
2022/01/26 20:23:55;;;;;;;15.25;8.10;;;;;;;;;;4995649;28;20053;-85
2022/01/26 20:26:22;;;;;;;11.75;6.90;;;;;;;;;;4995626;28;20205;-85
2022/01/26 20:28:48;;;;;;;22.17;10.65;;;;;;;;;;4995870;28;20471;-85
2022/01/26 20:31:23;;;;;;;25.20;13.07;;;;;;;;;;4995373;28;20030;-85
2022/01/26 20:33:50;;;;;;;18.63;10.70;;;;;;;;;;4992256;28;20077;-86
2022/01/26 20:36:16;;;;;;;19.63;10.80;;;;;;;;;;4991901;28;20022;-85
2022/01/26 20:38:43;;;;;;;18.38;11.90;;;;;;;;;;4994215;28;20041;-85
2022/01/26 20:41:09;;;;;;;25.83;14.73;;;;;;;;;;4989316;28;20027;-85
2022/01/26 20:43:35;;;;;;;25.60;14.82;;;;;;;;;;4994716;28;20034;-85
2022/01/26 20:46:05;;;;;;;21.98;12.82;;;;;;;;;;4993299;28;20062;-85
2022/01/26 20:48:31;;;;;;;19.85;10.85;;;;;;;;;;4994741;28;20058;-86
2022/01/26 20:50:57;;;;;;;13.43;5.95;;;;;;;;;;4992875;28;20050;-85
2022/01/26 20:53:23;;;;;;;15.80;7.25;;;;;;;;;;5010464;28;20081;-84
2022/01/26 20:55:49;;;;;;;16.00;8.88;;;;;;;;;;4994370;28;20034;-86
2022/01/26 20:58:15;;;;;;;19.98;11.32;;;;;;;;;;5006947;28;20026;-85
2022/01/26 21:00:41;;;;;;;23.95;12.15;;;;;;;;;;4995255;28;20026;-84
2022/01/26 21:03:09;;;;;;;20.65;11.18;;;;;;;;;;4992924;28;20026;-85
2022/01/26 21:05:35;;;;;;;19.20;11.30;;;;;;;;;;5009767;28;20026;-84
2022/01/26 21:08:01;;;;;;;17.95;10.63;;;;;;;;;;4995005;28;20095;-85
2022/01/26 21:10:27;;;;;;;19.55;10.05;;;;;;;;;;4994227;28;20099;-85
2022/01/26 21:12:53;;;;;;;20.10;10.27;;;;;;;;;;4994433;28;20046;-85
2022/01/26 21:15:19;;;;;;;15.15;9.07;;;;;;;;;;4993562;28;20073;-84
2022/01/26 21:17:46;;;;;;;18.20;10.18;;;;;;;;;;4992317;28;20030;-85
2022/01/26 21:20:15;;;;;;;16.00;9.02;;;;;;;;;;4991302;28;20030;-84
2022/01/26 21:22:41;;;;;;;19.38;9.60;;;;;;;;;;5006822;28;20467;-86
2022/01/26 21:25:07;;;;;;;27.42;13.10;;;;;;;;;;4990150;28;20038;-84
2022/01/26 21:27:33;;;;;;;19.83;10.60;;;;;;;;;;4990747;28;20038;-85
2022/01/26 21:29:59;;;;;;;20.05;10.93;;;;;;;;;;4992103;28;20049;-86
2022/01/26 21:32:26;;;;;;;20.98;10.35;;;;;;;;;;4993768;28;20360;-87
2022/01/26 21:34:52;;;;;;;19.83;10.73;;;;;;;;;;4993825;28;20074;-87
2022/01/26 21:37:18;;;;;;;20.52;11.27;;;;;;;;;;5011174;28;20109;-86
2022/01/26 21:39:44;;;;;;;21.10;11.75;;;;;;;;;;5007340;28;20045;-85
2022/01/26 21:42:11;;;;;;;24.10;12.05;;;;;;;;;;4992263;28;20027;-85